<?xml version="1.0" encoding="UTF-8" standalone="no" ?>
<gpx xmlns="http://www.topografix.com/GPX/1/1" xmlns:xsi="http://www.w3.org/2001/XMLSchema-instance" xsi:schemaLocation="http://www.topografix.com/GPX/1/1 http://www.topografix.com/GPX/1/1/gpx.xsd" version="1.1" creator="VisuGPX - https://www.visugpx.com">
  <metadata>
    <name>Faraut Pointes 2493 et 2517</name>
    <desc><![CDATA[<p>Type: Marche<br/>Heure de départ: 08:46 3 sept. 2026<br/>Heure d'arrivée: 16:47 3 sept. 2026<br/>Distance: 11,0 km (08:01)<br/>Temps déplacement: 05:29<br/>Vitesse moyenne: 1,37 km/h<br/>Vitesse en mouvement: 2,00 km/h<br/>Vitesse Max.: 5,84 km/h<br/>Altitude minimale: 1453 m<br/>Altitude maximale: 2494 m<br/>Vitesse de montée: 372,1 m/h<br/>Vitesse de descente: 549,5 m/h<br/>Dénivelé positif: 1217 m<br/>Dénivelé négatif: 1218 m<br/>Temps de montée: 03:16<br/>Temps de descente: 02:13<br/></p><hr align="center" width="480" style="height: 2px; width: 517px"/>]]></desc>
  </metadata>
  <wpt lat="44.72577" lon="5.9528">
    <ele>2226.22</ele>
    <name><![CDATA[0000815]]></name>
    <type><![CDATA[Jalon]]></type>
  </wpt>
  <wpt lat="44.72774" lon="5.95303">
    <ele>2325</ele>
    <name><![CDATA[0000816]]></name>
    <type><![CDATA[Jalon]]></type>
  </wpt>
  <wpt lat="44.72888" lon="5.95548">
    <ele>2482.38</ele>
    <name><![CDATA[0000817]]></name>
    <type><![CDATA[Jalon]]></type>
  </wpt>
  <trk>
    <name><![CDATA[2026-09-03 faraut 2493 2517]]></name>
    <desc><![CDATA[<p>Type: Marche<br/>Heure de départ: 08:46 3 sept. 2026<br/>Heure d'arrivée: 16:47 3 sept. 2026<br/>Distance: 11,0 km (08:01)<br/>Temps déplacement: 05:29<br/>Vitesse moyenne: 1,37 km/h<br/>Vitesse en mouvement: 2,00 km/h<br/>Vitesse Max.: 5,84 km/h<br/>Altitude minimale: 1453 m<br/>Altitude maximale: 2494 m<br/>Vitesse de montée: 372,1 m/h<br/>Vitesse de descente: 549,5 m/h<br/>Dénivelé positif: 1217 m<br/>Dénivelé négatif: 1218 m<br/>Temps de montée: 03:16<br/>Temps de descente: 02:13<br/></p><hr align="center" width="480" style="height: 2px; width: 517px"/>]]></desc>
    <trkseg>
      <trkpt lat="44.70084" lon="5.9513">
        <ele>1505.44</ele>
        <time>2026-09-03T06:46:24.999Z</time>
      </trkpt>
      <trkpt lat="44.70084" lon="5.9513">
        <ele>1505.75</ele>
        <time>2026-09-03T06:46:36.999Z</time>
      </trkpt>
      <trkpt lat="44.70102" lon="5.95141">
        <ele>1508.84</ele>
        <time>2026-09-03T06:47:47.999Z</time>
      </trkpt>
      <trkpt lat="44.70121" lon="5.95143">
        <ele>1509.28</ele>
        <time>2026-09-03T06:48:05.999Z</time>
      </trkpt>
      <trkpt lat="44.7014" lon="5.95144">
        <ele>1511.13</ele>
        <time>2026-09-03T06:48:21.999Z</time>
      </trkpt>
      <trkpt lat="44.70159" lon="5.95148">
        <ele>1512.07</ele>
        <time>2026-09-03T06:48:41.999Z</time>
      </trkpt>
      <trkpt lat="44.70177" lon="5.95145">
        <ele>1513.59</ele>
        <time>2026-09-03T06:49:01.999Z</time>
      </trkpt>
      <trkpt lat="44.70191" lon="5.95127">
        <ele>1516.18</ele>
        <time>2026-09-03T06:49:21.999Z</time>
      </trkpt>
      <trkpt lat="44.7021" lon="5.95127">
        <ele>1516.85</ele>
        <time>2026-09-03T06:49:45.999Z</time>
      </trkpt>
      <trkpt lat="44.70229" lon="5.95126">
        <ele>1517.18</ele>
        <time>2026-09-03T06:50:03.999Z</time>
      </trkpt>
      <trkpt lat="44.70247" lon="5.95123">
        <ele>1519.3</ele>
        <time>2026-09-03T06:50:31.999Z</time>
      </trkpt>
      <trkpt lat="44.70264" lon="5.95112">
        <ele>1521.12</ele>
        <time>2026-09-03T06:50:47.999Z</time>
      </trkpt>
      <trkpt lat="44.70282" lon="5.95105">
        <ele>1519.56</ele>
        <time>2026-09-03T06:51:08.000Z</time>
      </trkpt>
      <trkpt lat="44.70298" lon="5.95093">
        <ele>1521.75</ele>
        <time>2026-09-03T06:51:24.000Z</time>
      </trkpt>
      <trkpt lat="44.70308" lon="5.95067">
        <ele>1524.68</ele>
        <time>2026-09-03T06:51:42.000Z</time>
      </trkpt>
      <trkpt lat="44.70318" lon="5.95045">
        <ele>1527.48</ele>
        <time>2026-09-03T06:51:58.000Z</time>
      </trkpt>
      <trkpt lat="44.70329" lon="5.95023">
        <ele>1528.12</ele>
        <time>2026-09-03T06:52:18.000Z</time>
      </trkpt>
      <trkpt lat="44.70343" lon="5.95004">
        <ele>1530.74</ele>
        <time>2026-09-03T06:52:38.000Z</time>
      </trkpt>
      <trkpt lat="44.70354" lon="5.94982">
        <ele>1532.18</ele>
        <time>2026-09-03T06:53:18.000Z</time>
      </trkpt>
      <trkpt lat="44.70372" lon="5.94975">
        <ele>1535.01</ele>
        <time>2026-09-03T06:53:36.000Z</time>
      </trkpt>
      <trkpt lat="44.70386" lon="5.94956">
        <ele>1536.97</ele>
        <time>2026-09-03T06:53:58.000Z</time>
      </trkpt>
      <trkpt lat="44.70397" lon="5.94934">
        <ele>1539.16</ele>
        <time>2026-09-03T06:54:16.000Z</time>
      </trkpt>
      <trkpt lat="44.70412" lon="5.94952">
        <ele>1540.16</ele>
        <time>2026-09-03T06:54:36.000Z</time>
      </trkpt>
      <trkpt lat="44.70431" lon="5.94954">
        <ele>1541.95</ele>
        <time>2026-09-03T06:54:56.000Z</time>
      </trkpt>
      <trkpt lat="44.70441" lon="5.94932">
        <ele>1544.37</ele>
        <time>2026-09-03T06:55:14.000Z</time>
      </trkpt>
      <trkpt lat="44.70457" lon="5.94918">
        <ele>1546.36</ele>
        <time>2026-09-03T06:55:32.000Z</time>
      </trkpt>
      <trkpt lat="44.70471" lon="5.949">
        <ele>1549</ele>
        <time>2026-09-03T06:55:48.000Z</time>
      </trkpt>
      <trkpt lat="44.70483" lon="5.94881">
        <ele>1551.27</ele>
        <time>2026-09-03T06:56:08.000Z</time>
      </trkpt>
      <trkpt lat="44.705" lon="5.94869">
        <ele>1553.08</ele>
        <time>2026-09-03T06:56:28.000Z</time>
      </trkpt>
      <trkpt lat="44.70519" lon="5.94866">
        <ele>1553.28</ele>
        <time>2026-09-03T06:56:44.000Z</time>
      </trkpt>
      <trkpt lat="44.70533" lon="5.9485">
        <ele>1554.17</ele>
        <time>2026-09-03T06:57:04.000Z</time>
      </trkpt>
      <trkpt lat="44.70533" lon="5.94876">
        <ele>1560.26</ele>
        <time>2026-09-03T06:58:38.000Z</time>
      </trkpt>
      <trkpt lat="44.70524" lon="5.94902">
        <ele>1561.11</ele>
        <time>2026-09-03T06:58:56.000Z</time>
      </trkpt>
      <trkpt lat="44.70521" lon="5.94928">
        <ele>1563.53</ele>
        <time>2026-09-03T06:59:14.000Z</time>
      </trkpt>
      <trkpt lat="44.70519" lon="5.94954">
        <ele>1565.93</ele>
        <time>2026-09-03T06:59:29.999Z</time>
      </trkpt>
      <trkpt lat="44.7052" lon="5.94981">
        <ele>1567.17</ele>
        <time>2026-09-03T06:59:49.999Z</time>
      </trkpt>
      <trkpt lat="44.70513" lon="5.95007">
        <ele>1568.59</ele>
        <time>2026-09-03T07:00:05.999Z</time>
      </trkpt>
      <trkpt lat="44.70503" lon="5.95031">
        <ele>1570.01</ele>
        <time>2026-09-03T07:00:23.999Z</time>
      </trkpt>
      <trkpt lat="44.70494" lon="5.95055">
        <ele>1572.1</ele>
        <time>2026-09-03T07:00:40.999Z</time>
      </trkpt>
      <trkpt lat="44.70487" lon="5.95078">
        <ele>1573.55</ele>
        <time>2026-09-03T07:00:58.999Z</time>
      </trkpt>
      <trkpt lat="44.70479" lon="5.95104">
        <ele>1575.58</ele>
        <time>2026-09-03T07:01:18.999Z</time>
      </trkpt>
      <trkpt lat="44.70475" lon="5.95131">
        <ele>1576.87</ele>
        <time>2026-09-03T07:01:38.999Z</time>
      </trkpt>
      <trkpt lat="44.70477" lon="5.95158">
        <ele>1579.47</ele>
        <time>2026-09-03T07:01:58.999Z</time>
      </trkpt>
      <trkpt lat="44.70481" lon="5.95186">
        <ele>1581.21</ele>
        <time>2026-09-03T07:02:16.999Z</time>
      </trkpt>
      <trkpt lat="44.70473" lon="5.9521">
        <ele>1582.88</ele>
        <time>2026-09-03T07:02:36.999Z</time>
      </trkpt>
      <trkpt lat="44.70463" lon="5.95231">
        <ele>1585.02</ele>
        <time>2026-09-03T07:02:52.999Z</time>
      </trkpt>
      <trkpt lat="44.70454" lon="5.95254">
        <ele>1587.5</ele>
        <time>2026-09-03T07:03:10.999Z</time>
      </trkpt>
      <trkpt lat="44.70442" lon="5.95278">
        <ele>1588.63</ele>
        <time>2026-09-03T07:03:26.999Z</time>
      </trkpt>
      <trkpt lat="44.70432" lon="5.953">
        <ele>1590.4</ele>
        <time>2026-09-03T07:03:44.999Z</time>
      </trkpt>
      <trkpt lat="44.70452" lon="5.95298">
        <ele>1592.48</ele>
        <time>2026-09-03T07:04:04.999Z</time>
      </trkpt>
      <trkpt lat="44.70462" lon="5.95274">
        <ele>1595.34</ele>
        <time>2026-09-03T07:04:24.999Z</time>
      </trkpt>
      <trkpt lat="44.70479" lon="5.95262">
        <ele>1597.14</ele>
        <time>2026-09-03T07:04:46.999Z</time>
      </trkpt>
      <trkpt lat="44.70499" lon="5.95264">
        <ele>1598.11</ele>
        <time>2026-09-03T07:05:04.999Z</time>
      </trkpt>
      <trkpt lat="44.70518" lon="5.9526">
        <ele>1600.17</ele>
        <time>2026-09-03T07:05:22.999Z</time>
      </trkpt>
      <trkpt lat="44.70529" lon="5.95241">
        <ele>1600.55</ele>
        <time>2026-09-03T07:05:38.999Z</time>
      </trkpt>
      <trkpt lat="44.70533" lon="5.95215">
        <ele>1602.14</ele>
        <time>2026-09-03T07:05:54.999Z</time>
      </trkpt>
      <trkpt lat="44.70543" lon="5.95191">
        <ele>1604.59</ele>
        <time>2026-09-03T07:06:12.999Z</time>
      </trkpt>
      <trkpt lat="44.70558" lon="5.95175">
        <ele>1606</ele>
        <time>2026-09-03T07:06:30.999Z</time>
      </trkpt>
      <trkpt lat="44.7057" lon="5.95156">
        <ele>1608.59</ele>
        <time>2026-09-03T07:06:47.999Z</time>
      </trkpt>
      <trkpt lat="44.70583" lon="5.95137">
        <ele>1610.5</ele>
        <time>2026-09-03T07:07:07.999Z</time>
      </trkpt>
      <trkpt lat="44.706" lon="5.95123">
        <ele>1612.47</ele>
        <time>2026-09-03T07:07:25.999Z</time>
      </trkpt>
      <trkpt lat="44.70613" lon="5.95103">
        <ele>1614.18</ele>
        <time>2026-09-03T07:07:43.999Z</time>
      </trkpt>
      <trkpt lat="44.70623" lon="5.95079">
        <ele>1614.54</ele>
        <time>2026-09-03T07:08:02.000Z</time>
      </trkpt>
      <trkpt lat="44.70627" lon="5.95053">
        <ele>1617.41</ele>
        <time>2026-09-03T07:08:20.000Z</time>
      </trkpt>
      <trkpt lat="44.70629" lon="5.95027">
        <ele>1619.46</ele>
        <time>2026-09-03T07:08:40.000Z</time>
      </trkpt>
      <trkpt lat="44.70633" lon="5.94999">
        <ele>1620.96</ele>
        <time>2026-09-03T07:08:58.000Z</time>
      </trkpt>
      <trkpt lat="44.70638" lon="5.94974">
        <ele>1622.6</ele>
        <time>2026-09-03T07:09:14.000Z</time>
      </trkpt>
      <trkpt lat="44.70649" lon="5.94952">
        <ele>1623.7</ele>
        <time>2026-09-03T07:09:32.000Z</time>
      </trkpt>
      <trkpt lat="44.70663" lon="5.94933">
        <ele>1625.73</ele>
        <time>2026-09-03T07:09:52.000Z</time>
      </trkpt>
      <trkpt lat="44.70678" lon="5.94916">
        <ele>1627.75</ele>
        <time>2026-09-03T07:10:10.000Z</time>
      </trkpt>
      <trkpt lat="44.70692" lon="5.94896">
        <ele>1629.11</ele>
        <time>2026-09-03T07:10:30.000Z</time>
      </trkpt>
      <trkpt lat="44.70708" lon="5.9488">
        <ele>1630.79</ele>
        <time>2026-09-03T07:10:48.000Z</time>
      </trkpt>
      <trkpt lat="44.70725" lon="5.94866">
        <ele>1633.37</ele>
        <time>2026-09-03T07:11:10.000Z</time>
      </trkpt>
      <trkpt lat="44.70741" lon="5.94854">
        <ele>1635.39</ele>
        <time>2026-09-03T07:11:30.000Z</time>
      </trkpt>
      <trkpt lat="44.70758" lon="5.94843">
        <ele>1638.17</ele>
        <time>2026-09-03T07:11:50.000Z</time>
      </trkpt>
      <trkpt lat="44.70777" lon="5.94836">
        <ele>1639.72</ele>
        <time>2026-09-03T07:12:08.000Z</time>
      </trkpt>
      <trkpt lat="44.70795" lon="5.9483">
        <ele>1640.89</ele>
        <time>2026-09-03T07:12:26.000Z</time>
      </trkpt>
      <trkpt lat="44.70814" lon="5.94825">
        <ele>1642.42</ele>
        <time>2026-09-03T07:12:44.000Z</time>
      </trkpt>
      <trkpt lat="44.70833" lon="5.94823">
        <ele>1644.49</ele>
        <time>2026-09-03T07:13:04.000Z</time>
      </trkpt>
      <trkpt lat="44.70851" lon="5.94817">
        <ele>1646.12</ele>
        <time>2026-09-03T07:13:22.000Z</time>
      </trkpt>
      <trkpt lat="44.7087" lon="5.94814">
        <ele>1648.4</ele>
        <time>2026-09-03T07:13:44.000Z</time>
      </trkpt>
      <trkpt lat="44.70889" lon="5.94813">
        <ele>1650.46</ele>
        <time>2026-09-03T07:14:02.000Z</time>
      </trkpt>
      <trkpt lat="44.70909" lon="5.94811">
        <ele>1651.59</ele>
        <time>2026-09-03T07:14:20.000Z</time>
      </trkpt>
      <trkpt lat="44.70929" lon="5.94813">
        <ele>1654.58</ele>
        <time>2026-09-03T07:14:42.000Z</time>
      </trkpt>
      <trkpt lat="44.70947" lon="5.94816">
        <ele>1655.63</ele>
        <time>2026-09-03T07:15:02.000Z</time>
      </trkpt>
      <trkpt lat="44.70967" lon="5.94821">
        <ele>1658.25</ele>
        <time>2026-09-03T07:15:20.000Z</time>
      </trkpt>
      <trkpt lat="44.70984" lon="5.94829">
        <ele>1659.78</ele>
        <time>2026-09-03T07:15:42.000Z</time>
      </trkpt>
      <trkpt lat="44.71002" lon="5.94832">
        <ele>1660.96</ele>
        <time>2026-09-03T07:15:56.000Z</time>
      </trkpt>
      <trkpt lat="44.71017" lon="5.94815">
        <ele>1664.62</ele>
        <time>2026-09-03T07:16:18.000Z</time>
      </trkpt>
      <trkpt lat="44.7103" lon="5.94795">
        <ele>1665.09</ele>
        <time>2026-09-03T07:16:34.000Z</time>
      </trkpt>
      <trkpt lat="44.71037" lon="5.94772">
        <ele>1666.83</ele>
        <time>2026-09-03T07:16:51.999Z</time>
      </trkpt>
      <trkpt lat="44.71047" lon="5.94749">
        <ele>1667.85</ele>
        <time>2026-09-03T07:17:07.999Z</time>
      </trkpt>
      <trkpt lat="44.7106" lon="5.94731">
        <ele>1669.35</ele>
        <time>2026-09-03T07:17:23.999Z</time>
      </trkpt>
      <trkpt lat="44.71078" lon="5.94721">
        <ele>1670.75</ele>
        <time>2026-09-03T07:17:43.999Z</time>
      </trkpt>
      <trkpt lat="44.71098" lon="5.94717">
        <ele>1673.32</ele>
        <time>2026-09-03T07:18:03.999Z</time>
      </trkpt>
      <trkpt lat="44.71117" lon="5.94713">
        <ele>1675.59</ele>
        <time>2026-09-03T07:18:25.999Z</time>
      </trkpt>
      <trkpt lat="44.71135" lon="5.94712">
        <ele>1676.97</ele>
        <time>2026-09-03T07:18:41.999Z</time>
      </trkpt>
      <trkpt lat="44.71155" lon="5.94715">
        <ele>1677.04</ele>
        <time>2026-09-03T07:19:01.999Z</time>
      </trkpt>
      <trkpt lat="44.71174" lon="5.94705">
        <ele>1680.16</ele>
        <time>2026-09-03T07:19:19.999Z</time>
      </trkpt>
      <trkpt lat="44.71186" lon="5.94685">
        <ele>1682.41</ele>
        <time>2026-09-03T07:19:37.999Z</time>
      </trkpt>
      <trkpt lat="44.71196" lon="5.94661">
        <ele>1684.24</ele>
        <time>2026-09-03T07:19:57.999Z</time>
      </trkpt>
      <trkpt lat="44.71206" lon="5.94638">
        <ele>1686.56</ele>
        <time>2026-09-03T07:20:17.999Z</time>
      </trkpt>
      <trkpt lat="44.71219" lon="5.94618">
        <ele>1688.32</ele>
        <time>2026-09-03T07:20:33.999Z</time>
      </trkpt>
      <trkpt lat="44.71234" lon="5.94602">
        <ele>1690.08</ele>
        <time>2026-09-03T07:20:55.999Z</time>
      </trkpt>
      <trkpt lat="44.71252" lon="5.94595">
        <ele>1692.25</ele>
        <time>2026-09-03T07:21:11.999Z</time>
      </trkpt>
      <trkpt lat="44.71271" lon="5.94589">
        <ele>1694.83</ele>
        <time>2026-09-03T07:22:13.999Z</time>
      </trkpt>
      <trkpt lat="44.71292" lon="5.9459">
        <ele>1697.64</ele>
        <time>2026-09-03T07:24:33.999Z</time>
      </trkpt>
      <trkpt lat="44.7131" lon="5.94583">
        <ele>1700.16</ele>
        <time>2026-09-03T07:24:53.999Z</time>
      </trkpt>
      <trkpt lat="44.71326" lon="5.94571">
        <ele>1700.14</ele>
        <time>2026-09-03T07:25:07.999Z</time>
      </trkpt>
      <trkpt lat="44.71344" lon="5.94564">
        <ele>1700.76</ele>
        <time>2026-09-03T07:25:21.999Z</time>
      </trkpt>
      <trkpt lat="44.71361" lon="5.94555">
        <ele>1701.86</ele>
        <time>2026-09-03T07:25:40.000Z</time>
      </trkpt>
      <trkpt lat="44.7138" lon="5.9455">
        <ele>1703.13</ele>
        <time>2026-09-03T07:25:56.000Z</time>
      </trkpt>
      <trkpt lat="44.71399" lon="5.94554">
        <ele>1703.47</ele>
        <time>2026-09-03T07:26:14.000Z</time>
      </trkpt>
      <trkpt lat="44.71418" lon="5.94551">
        <ele>1706.15</ele>
        <time>2026-09-03T07:26:36.000Z</time>
      </trkpt>
      <trkpt lat="44.71438" lon="5.94556">
        <ele>1707.95</ele>
        <time>2026-09-03T07:27:00.000Z</time>
      </trkpt>
      <trkpt lat="44.71457" lon="5.94561">
        <ele>1709.21</ele>
        <time>2026-09-03T07:27:16.000Z</time>
      </trkpt>
      <trkpt lat="44.71477" lon="5.94569">
        <ele>1711.93</ele>
        <time>2026-09-03T07:27:36.000Z</time>
      </trkpt>
      <trkpt lat="44.71493" lon="5.94558">
        <ele>1712.2</ele>
        <time>2026-09-03T07:27:50.000Z</time>
      </trkpt>
      <trkpt lat="44.7151" lon="5.94549">
        <ele>1712.51</ele>
        <time>2026-09-03T07:28:04.000Z</time>
      </trkpt>
      <trkpt lat="44.71528" lon="5.94545">
        <ele>1713.36</ele>
        <time>2026-09-03T07:28:34.000Z</time>
      </trkpt>
      <trkpt lat="44.71547" lon="5.94546">
        <ele>1712.3</ele>
        <time>2026-09-03T07:29:54.000Z</time>
      </trkpt>
      <trkpt lat="44.71563" lon="5.94556">
        <ele>1712.37</ele>
        <time>2026-09-03T07:30:18.000Z</time>
      </trkpt>
      <trkpt lat="44.71582" lon="5.94551">
        <ele>1715.56</ele>
        <time>2026-09-03T07:30:38.000Z</time>
      </trkpt>
      <trkpt lat="44.71601" lon="5.94555">
        <ele>1717.69</ele>
        <time>2026-09-03T07:31:12.000Z</time>
      </trkpt>
      <trkpt lat="44.7162" lon="5.94551">
        <ele>1717.95</ele>
        <time>2026-09-03T07:31:38.000Z</time>
      </trkpt>
      <trkpt lat="44.71637" lon="5.94543">
        <ele>1720.05</ele>
        <time>2026-09-03T07:32:06.000Z</time>
      </trkpt>
      <trkpt lat="44.71641" lon="5.94572">
        <ele>1726.65</ele>
        <time>2026-09-03T07:34:47.999Z</time>
      </trkpt>
      <trkpt lat="44.71652" lon="5.94592">
        <ele>1735.19</ele>
        <time>2026-09-03T07:35:51.999Z</time>
      </trkpt>
      <trkpt lat="44.71656" lon="5.94617">
        <ele>1743.09</ele>
        <time>2026-09-03T07:36:49.999Z</time>
      </trkpt>
      <trkpt lat="44.71666" lon="5.94639">
        <ele>1751</ele>
        <time>2026-09-03T07:37:51.999Z</time>
      </trkpt>
      <trkpt lat="44.71669" lon="5.94665">
        <ele>1757.91</ele>
        <time>2026-09-03T07:38:35.999Z</time>
      </trkpt>
      <trkpt lat="44.71672" lon="5.9469">
        <ele>1768.46</ele>
        <time>2026-09-03T07:40:30.999Z</time>
      </trkpt>
      <trkpt lat="44.71683" lon="5.94712">
        <ele>1781.04</ele>
        <time>2026-09-03T07:41:58.999Z</time>
      </trkpt>
      <trkpt lat="44.71686" lon="5.94738">
        <ele>1787.06</ele>
        <time>2026-09-03T07:42:51.000Z</time>
      </trkpt>
      <trkpt lat="44.71703" lon="5.94748">
        <ele>1794.73</ele>
        <time>2026-09-03T07:43:41.000Z</time>
      </trkpt>
      <trkpt lat="44.71715" lon="5.94767">
        <ele>1805.16</ele>
        <time>2026-09-03T07:44:27.000Z</time>
      </trkpt>
      <trkpt lat="44.7173" lon="5.94782">
        <ele>1816.35</ele>
        <time>2026-09-03T07:45:37.000Z</time>
      </trkpt>
      <trkpt lat="44.71749" lon="5.94783">
        <ele>1822.59</ele>
        <time>2026-09-03T07:46:13.000Z</time>
      </trkpt>
      <trkpt lat="44.71763" lon="5.948">
        <ele>1830.51</ele>
        <time>2026-09-03T07:47:19.000Z</time>
      </trkpt>
      <trkpt lat="44.71782" lon="5.94801">
        <ele>1836.41</ele>
        <time>2026-09-03T07:47:55.000Z</time>
      </trkpt>
      <trkpt lat="44.718" lon="5.94809">
        <ele>1841.23</ele>
        <time>2026-09-03T07:48:59.000Z</time>
      </trkpt>
      <trkpt lat="44.71817" lon="5.94822">
        <ele>1843.34</ele>
        <time>2026-09-03T07:49:39.000Z</time>
      </trkpt>
      <trkpt lat="44.71834" lon="5.94833">
        <ele>1849.14</ele>
        <time>2026-09-03T07:50:31.000Z</time>
      </trkpt>
      <trkpt lat="44.71853" lon="5.9483">
        <ele>1853.19</ele>
        <time>2026-09-03T07:51:05.000Z</time>
      </trkpt>
      <trkpt lat="44.71871" lon="5.94835">
        <ele>1859.16</ele>
        <time>2026-09-03T07:51:36.999Z</time>
      </trkpt>
      <trkpt lat="44.71888" lon="5.94846">
        <ele>1862.54</ele>
        <time>2026-09-03T07:52:10.999Z</time>
      </trkpt>
      <trkpt lat="44.71906" lon="5.94856">
        <ele>1864.17</ele>
        <time>2026-09-03T07:52:48.999Z</time>
      </trkpt>
      <trkpt lat="44.71923" lon="5.94866">
        <ele>1866.71</ele>
        <time>2026-09-03T07:53:28.999Z</time>
      </trkpt>
      <trkpt lat="44.7194" lon="5.94876">
        <ele>1867.82</ele>
        <time>2026-09-03T07:54:08.999Z</time>
      </trkpt>
      <trkpt lat="44.71953" lon="5.94895">
        <ele>1872.26</ele>
        <time>2026-09-03T07:54:58.999Z</time>
      </trkpt>
      <trkpt lat="44.71964" lon="5.94918">
        <ele>1875.08</ele>
        <time>2026-09-03T07:55:40.999Z</time>
      </trkpt>
      <trkpt lat="44.71981" lon="5.94934">
        <ele>1877.01</ele>
        <time>2026-09-03T07:55:54.999Z</time>
      </trkpt>
      <trkpt lat="44.71992" lon="5.94954">
        <ele>1879.86</ele>
        <time>2026-09-03T07:57:18.999Z</time>
      </trkpt>
      <trkpt lat="44.72005" lon="5.94936">
        <ele>1882.09</ele>
        <time>2026-09-03T07:57:50.999Z</time>
      </trkpt>
      <trkpt lat="44.72021" lon="5.94925">
        <ele>1890.76</ele>
        <time>2026-09-03T07:58:50.999Z</time>
      </trkpt>
      <trkpt lat="44.7204" lon="5.94929">
        <ele>1897.2</ele>
        <time>2026-09-03T07:59:49.000Z</time>
      </trkpt>
      <trkpt lat="44.7206" lon="5.94932">
        <ele>1907.57</ele>
        <time>2026-09-03T08:00:33.000Z</time>
      </trkpt>
      <trkpt lat="44.72076" lon="5.94944">
        <ele>1916.66</ele>
        <time>2026-09-03T08:01:45.000Z</time>
      </trkpt>
      <trkpt lat="44.72092" lon="5.94958">
        <ele>1924.74</ele>
        <time>2026-09-03T08:03:33.000Z</time>
      </trkpt>
      <trkpt lat="44.72109" lon="5.94967">
        <ele>1928.94</ele>
        <time>2026-09-03T08:04:13.000Z</time>
      </trkpt>
      <trkpt lat="44.72126" lon="5.94976">
        <ele>1933.8</ele>
        <time>2026-09-03T08:04:45.000Z</time>
      </trkpt>
      <trkpt lat="44.72138" lon="5.94995">
        <ele>1938.55</ele>
        <time>2026-09-03T08:05:23.000Z</time>
      </trkpt>
      <trkpt lat="44.7215" lon="5.95013">
        <ele>1944.64</ele>
        <time>2026-09-03T08:06:17.000Z</time>
      </trkpt>
      <trkpt lat="44.7216" lon="5.95036">
        <ele>1949.35</ele>
        <time>2026-09-03T08:07:33.000Z</time>
      </trkpt>
      <trkpt lat="44.72143" lon="5.95026">
        <ele>1948.97</ele>
        <time>2026-09-03T08:08:56.999Z</time>
      </trkpt>
      <trkpt lat="44.72161" lon="5.95036">
        <ele>1946.78</ele>
        <time>2026-09-03T08:10:14.999Z</time>
      </trkpt>
      <trkpt lat="44.7218" lon="5.95033">
        <ele>1947.65</ele>
        <time>2026-09-03T08:11:08.999Z</time>
      </trkpt>
      <trkpt lat="44.72198" lon="5.95031">
        <ele>1949.62</ele>
        <time>2026-09-03T08:12:24.999Z</time>
      </trkpt>
      <trkpt lat="44.72216" lon="5.95029">
        <ele>1949.87</ele>
        <time>2026-09-03T08:12:58.999Z</time>
      </trkpt>
      <trkpt lat="44.72233" lon="5.95022">
        <ele>1952.98</ele>
        <time>2026-09-03T08:14:52.999Z</time>
      </trkpt>
      <trkpt lat="44.7225" lon="5.95033">
        <ele>1968.65</ele>
        <time>2026-09-03T08:16:53.000Z</time>
      </trkpt>
      <trkpt lat="44.72267" lon="5.95041">
        <ele>1981.27</ele>
        <time>2026-09-03T08:18:13.000Z</time>
      </trkpt>
      <trkpt lat="44.72285" lon="5.95043">
        <ele>1989.93</ele>
        <time>2026-09-03T08:19:23.000Z</time>
      </trkpt>
      <trkpt lat="44.72302" lon="5.95055">
        <ele>1997.95</ele>
        <time>2026-09-03T08:20:37.000Z</time>
      </trkpt>
      <trkpt lat="44.72321" lon="5.95052">
        <ele>2006.37</ele>
        <time>2026-09-03T08:23:17.000Z</time>
      </trkpt>
      <trkpt lat="44.72339" lon="5.95055">
        <ele>2018.04</ele>
        <time>2026-09-03T08:24:29.000Z</time>
      </trkpt>
      <trkpt lat="44.72358" lon="5.95044">
        <ele>2028.84</ele>
        <time>2026-09-03T08:25:25.000Z</time>
      </trkpt>
      <trkpt lat="44.72352" lon="5.95069">
        <ele>2032.47</ele>
        <time>2026-09-03T08:26:00.999Z</time>
      </trkpt>
      <trkpt lat="44.72361" lon="5.95091">
        <ele>2038.21</ele>
        <time>2026-09-03T08:28:30.999Z</time>
      </trkpt>
      <trkpt lat="44.72369" lon="5.95115">
        <ele>2043.78</ele>
        <time>2026-09-03T08:29:08.999Z</time>
      </trkpt>
      <trkpt lat="44.72378" lon="5.95136">
        <ele>2053.57</ele>
        <time>2026-09-03T08:30:26.999Z</time>
      </trkpt>
      <trkpt lat="44.72387" lon="5.95159">
        <ele>2064.03</ele>
        <time>2026-09-03T08:31:28.999Z</time>
      </trkpt>
      <trkpt lat="44.72405" lon="5.95163">
        <ele>2078.47</ele>
        <time>2026-09-03T08:32:50.999Z</time>
      </trkpt>
      <trkpt lat="44.72422" lon="5.95158">
        <ele>2086.42</ele>
        <time>2026-09-03T08:34:25.000Z</time>
      </trkpt>
      <trkpt lat="44.7244" lon="5.95152">
        <ele>2097.38</ele>
        <time>2026-09-03T08:35:13.000Z</time>
      </trkpt>
      <trkpt lat="44.72454" lon="5.95136">
        <ele>2104.63</ele>
        <time>2026-09-03T08:35:59.000Z</time>
      </trkpt>
      <trkpt lat="44.72468" lon="5.95119">
        <ele>2109.85</ele>
        <time>2026-09-03T08:36:45.000Z</time>
      </trkpt>
      <trkpt lat="44.72486" lon="5.9511">
        <ele>2116.06</ele>
        <time>2026-09-03T08:37:47.000Z</time>
      </trkpt>
      <trkpt lat="44.72502" lon="5.95093">
        <ele>2120.47</ele>
        <time>2026-09-03T08:41:13.000Z</time>
      </trkpt>
      <trkpt lat="44.72495" lon="5.95119">
        <ele>2127.5</ele>
        <time>2026-09-03T08:42:21.000Z</time>
      </trkpt>
      <trkpt lat="44.72492" lon="5.95145">
        <ele>2134.88</ele>
        <time>2026-09-03T08:42:55.999Z</time>
      </trkpt>
      <trkpt lat="44.72494" lon="5.95171">
        <ele>2143.74</ele>
        <time>2026-09-03T08:44:13.999Z</time>
      </trkpt>
      <trkpt lat="44.725" lon="5.95197">
        <ele>2143.17</ele>
        <time>2026-09-03T08:45:07.999Z</time>
      </trkpt>
      <trkpt lat="44.72503" lon="5.95224">
        <ele>2160.23</ele>
        <time>2026-09-03T08:47:03.999Z</time>
      </trkpt>
      <trkpt lat="44.7251" lon="5.95248">
        <ele>2164.76</ele>
        <time>2026-09-03T08:47:53.999Z</time>
      </trkpt>
      <trkpt lat="44.72517" lon="5.95271">
        <ele>2178.91</ele>
        <time>2026-09-03T08:49:39.999Z</time>
      </trkpt>
      <trkpt lat="44.72529" lon="5.95292">
        <ele>2191.82</ele>
        <time>2026-09-03T08:51:38.000Z</time>
      </trkpt>
      <trkpt lat="44.72527" lon="5.95317">
        <ele>2196.37</ele>
        <time>2026-09-03T08:52:42.000Z</time>
      </trkpt>
      <trkpt lat="44.72545" lon="5.95319">
        <ele>2211.52</ele>
        <time>2026-09-03T08:55:18.000Z</time>
      </trkpt>
      <trkpt lat="44.72559" lon="5.95302">
        <ele>2220.58</ele>
        <time>2026-09-03T08:56:48.000Z</time>
      </trkpt>
      <trkpt lat="44.7257" lon="5.95282">
        <ele>2225.31</ele>
        <time>2026-09-03T08:57:40.000Z</time>
      </trkpt>
      <trkpt lat="44.72589" lon="5.95281">
        <ele>2230.9</ele>
        <time>2026-09-03T08:59:12.000Z</time>
      </trkpt>
      <trkpt lat="44.72607" lon="5.95288">
        <ele>2240.55</ele>
        <time>2026-09-03T09:04:00.999Z</time>
      </trkpt>
      <trkpt lat="44.72624" lon="5.95296">
        <ele>2235.68</ele>
        <time>2026-09-03T09:04:32.999Z</time>
      </trkpt>
      <trkpt lat="44.72642" lon="5.95303">
        <ele>2242.09</ele>
        <time>2026-09-03T09:06:34.999Z</time>
      </trkpt>
      <trkpt lat="44.72659" lon="5.95296">
        <ele>2251.45</ele>
        <time>2026-09-03T09:08:05.000Z</time>
      </trkpt>
      <trkpt lat="44.72679" lon="5.95292">
        <ele>2260.37</ele>
        <time>2026-09-03T09:09:35.000Z</time>
      </trkpt>
      <trkpt lat="44.72689" lon="5.95313">
        <ele>2273.38</ele>
        <time>2026-09-03T09:10:57.000Z</time>
      </trkpt>
      <trkpt lat="44.72706" lon="5.95321">
        <ele>2286.03</ele>
        <time>2026-09-03T09:13:27.000Z</time>
      </trkpt>
      <trkpt lat="44.72721" lon="5.95304">
        <ele>2298.7</ele>
        <time>2026-09-03T09:15:19.000Z</time>
      </trkpt>
      <trkpt lat="44.72739" lon="5.95301">
        <ele>2302.91</ele>
        <time>2026-09-03T09:16:06.999Z</time>
      </trkpt>
      <trkpt lat="44.72757" lon="5.953">
        <ele>2319.06</ele>
        <time>2026-09-03T09:19:36.999Z</time>
      </trkpt>
      <trkpt lat="44.72775" lon="5.9531">
        <ele>2324.58</ele>
        <time>2026-09-03T09:22:44.999Z</time>
      </trkpt>
      <trkpt lat="44.72774" lon="5.95335">
        <ele>2311.77</ele>
        <time>2026-09-03T09:26:47.000Z</time>
      </trkpt>
      <trkpt lat="44.72789" lon="5.95348">
        <ele>2307.18</ele>
        <time>2026-09-03T09:33:26.999Z</time>
      </trkpt>
      <trkpt lat="44.72806" lon="5.9536">
        <ele>2306.97</ele>
        <time>2026-09-03T09:34:52.999Z</time>
      </trkpt>
      <trkpt lat="44.72817" lon="5.9538">
        <ele>2309.37</ele>
        <time>2026-09-03T09:35:14.999Z</time>
      </trkpt>
      <trkpt lat="44.72834" lon="5.95367">
        <ele>2309.14</ele>
        <time>2026-09-03T09:35:54.999Z</time>
      </trkpt>
      <trkpt lat="44.72851" lon="5.95359">
        <ele>2305.17</ele>
        <time>2026-09-03T09:40:08.999Z</time>
      </trkpt>
      <trkpt lat="44.72868" lon="5.95349">
        <ele>2307.64</ele>
        <time>2026-09-03T09:40:48.999Z</time>
      </trkpt>
      <trkpt lat="44.72886" lon="5.95341">
        <ele>2310.91</ele>
        <time>2026-09-03T09:41:45.000Z</time>
      </trkpt>
      <trkpt lat="44.72904" lon="5.95338">
        <ele>2314.68</ele>
        <time>2026-09-03T09:42:27.000Z</time>
      </trkpt>
      <trkpt lat="44.72918" lon="5.95353">
        <ele>2330.93</ele>
        <time>2026-09-03T09:44:31.000Z</time>
      </trkpt>
      <trkpt lat="44.7294" lon="5.95359">
        <ele>2336.76</ele>
        <time>2026-09-03T09:45:43.000Z</time>
      </trkpt>
      <trkpt lat="44.72958" lon="5.95368">
        <ele>2346.56</ele>
        <time>2026-09-03T09:48:53.000Z</time>
      </trkpt>
      <trkpt lat="44.72976" lon="5.95365">
        <ele>2367.96</ele>
        <time>2026-09-03T09:53:03.999Z</time>
      </trkpt>
      <trkpt lat="44.72986" lon="5.95388">
        <ele>2383.82</ele>
        <time>2026-09-03T09:55:47.999Z</time>
      </trkpt>
      <trkpt lat="44.72968" lon="5.95384">
        <ele>2389.05</ele>
        <time>2026-09-03T09:58:21.999Z</time>
      </trkpt>
      <trkpt lat="44.72951" lon="5.95373">
        <ele>2387.13</ele>
        <time>2026-09-03T09:58:48.000Z</time>
      </trkpt>
      <trkpt lat="44.72963" lon="5.95392">
        <ele>2395.08</ele>
        <time>2026-09-03T10:01:22.000Z</time>
      </trkpt>
      <trkpt lat="44.72997" lon="5.95393">
        <ele>2406.95</ele>
        <time>2026-09-03T10:02:48.000Z</time>
      </trkpt>
      <trkpt lat="44.73015" lon="5.95402">
        <ele>2410.91</ele>
        <time>2026-09-03T10:04:02.000Z</time>
      </trkpt>
      <trkpt lat="44.7303" lon="5.95387">
        <ele>2413.97</ele>
        <time>2026-09-03T10:05:48.000Z</time>
      </trkpt>
      <trkpt lat="44.73048" lon="5.95388">
        <ele>2416.58</ele>
        <time>2026-09-03T10:07:53.999Z</time>
      </trkpt>
      <trkpt lat="44.73057" lon="5.95364">
        <ele>2420.48</ele>
        <time>2026-09-03T10:08:57.999Z</time>
      </trkpt>
      <trkpt lat="44.7306" lon="5.95338">
        <ele>2429</ele>
        <time>2026-09-03T10:10:09.999Z</time>
      </trkpt>
      <trkpt lat="44.73078" lon="5.95334">
        <ele>2440.5</ele>
        <time>2026-09-03T10:12:35.999Z</time>
      </trkpt>
      <trkpt lat="44.73097" lon="5.95335">
        <ele>2442.91</ele>
        <time>2026-09-03T10:14:31.999Z</time>
      </trkpt>
      <trkpt lat="44.73112" lon="5.9532">
        <ele>2447.54</ele>
        <time>2026-09-03T10:15:03.999Z</time>
      </trkpt>
      <trkpt lat="44.73111" lon="5.95346">
        <ele>2456.22</ele>
        <time>2026-09-03T10:18:10.000Z</time>
      </trkpt>
      <trkpt lat="44.73124" lon="5.95327">
        <ele>2451.05</ele>
        <time>2026-09-03T10:38:05.000Z</time>
      </trkpt>
      <trkpt lat="44.73108" lon="5.95341">
        <ele>2449.62</ele>
        <time>2026-09-03T10:41:26.999Z</time>
      </trkpt>
      <trkpt lat="44.7309" lon="5.95343">
        <ele>2454.21</ele>
        <time>2026-09-03T10:43:32.999Z</time>
      </trkpt>
      <trkpt lat="44.73072" lon="5.95347">
        <ele>2454.43</ele>
        <time>2026-09-03T10:47:46.999Z</time>
      </trkpt>
      <trkpt lat="44.73054" lon="5.95354">
        <ele>2445.13</ele>
        <time>2026-09-03T10:48:38.999Z</time>
      </trkpt>
      <trkpt lat="44.73035" lon="5.95353">
        <ele>2440.79</ele>
        <time>2026-09-03T10:50:05.000Z</time>
      </trkpt>
      <trkpt lat="44.73029" lon="5.95384">
        <ele>2421.28</ele>
        <time>2026-09-03T10:52:29.000Z</time>
      </trkpt>
      <trkpt lat="44.73014" lon="5.95397">
        <ele>2409.08</ele>
        <time>2026-09-03T10:55:15.000Z</time>
      </trkpt>
      <trkpt lat="44.72994" lon="5.95402">
        <ele>2394.62</ele>
        <time>2026-09-03T10:56:57.000Z</time>
      </trkpt>
      <trkpt lat="44.72981" lon="5.95383">
        <ele>2389.11</ele>
        <time>2026-09-03T10:57:54.999Z</time>
      </trkpt>
      <trkpt lat="44.72976" lon="5.95409">
        <ele>2381.9</ele>
        <time>2026-09-03T10:59:40.999Z</time>
      </trkpt>
      <trkpt lat="44.72956" lon="5.95407">
        <ele>2365.13</ele>
        <time>2026-09-03T11:00:48.999Z</time>
      </trkpt>
      <trkpt lat="44.72938" lon="5.95403">
        <ele>2353.1</ele>
        <time>2026-09-03T11:01:30.999Z</time>
      </trkpt>
      <trkpt lat="44.7292" lon="5.95396">
        <ele>2345.16</ele>
        <time>2026-09-03T11:02:03.999Z</time>
      </trkpt>
      <trkpt lat="44.72902" lon="5.95398">
        <ele>2325.17</ele>
        <time>2026-09-03T11:03:43.999Z</time>
      </trkpt>
      <trkpt lat="44.72884" lon="5.95404">
        <ele>2320.22</ele>
        <time>2026-09-03T11:04:17.999Z</time>
      </trkpt>
      <trkpt lat="44.72866" lon="5.95402">
        <ele>2313.15</ele>
        <time>2026-09-03T11:04:59.999Z</time>
      </trkpt>
      <trkpt lat="44.72852" lon="5.95386">
        <ele>2302.75</ele>
        <time>2026-09-03T11:05:36.000Z</time>
      </trkpt>
      <trkpt lat="44.72833" lon="5.95384">
        <ele>2304.63</ele>
        <time>2026-09-03T11:05:58.000Z</time>
      </trkpt>
      <trkpt lat="44.72814" lon="5.95382">
        <ele>2307.07</ele>
        <time>2026-09-03T11:06:24.000Z</time>
      </trkpt>
      <trkpt lat="44.72797" lon="5.95373">
        <ele>2304.82</ele>
        <time>2026-09-03T11:07:00.000Z</time>
      </trkpt>
      <trkpt lat="44.72783" lon="5.95357">
        <ele>2304.56</ele>
        <time>2026-09-03T11:07:38.000Z</time>
      </trkpt>
      <trkpt lat="44.72767" lon="5.95344">
        <ele>2307.64</ele>
        <time>2026-09-03T11:08:31.000Z</time>
      </trkpt>
      <trkpt lat="44.72751" lon="5.95332">
        <ele>2309.36</ele>
        <time>2026-09-03T11:09:07.000Z</time>
      </trkpt>
      <trkpt lat="44.7276" lon="5.95308">
        <ele>2318.88</ele>
        <time>2026-09-03T11:10:35.000Z</time>
      </trkpt>
      <trkpt lat="44.72766" lon="5.95333">
        <ele>2332.8</ele>
        <time>2026-09-03T11:13:39.000Z</time>
      </trkpt>
      <trkpt lat="44.72763" lon="5.95359">
        <ele>2335.44</ele>
        <time>2026-09-03T11:14:14.999Z</time>
      </trkpt>
      <trkpt lat="44.72774" lon="5.9538">
        <ele>2345.68</ele>
        <time>2026-09-03T11:15:44.999Z</time>
      </trkpt>
      <trkpt lat="44.72777" lon="5.95406">
        <ele>2353.15</ele>
        <time>2026-09-03T11:17:04.999Z</time>
      </trkpt>
      <trkpt lat="44.72772" lon="5.95431">
        <ele>2359.32</ele>
        <time>2026-09-03T11:18:00.999Z</time>
      </trkpt>
      <trkpt lat="44.72777" lon="5.95456">
        <ele>2371.39</ele>
        <time>2026-09-03T11:19:34.999Z</time>
      </trkpt>
      <trkpt lat="44.72795" lon="5.95464">
        <ele>2380.28</ele>
        <time>2026-09-03T11:21:36.999Z</time>
      </trkpt>
      <trkpt lat="44.72814" lon="5.95462">
        <ele>2390.59</ele>
        <time>2026-09-03T11:22:45.000Z</time>
      </trkpt>
      <trkpt lat="44.72811" lon="5.95488">
        <ele>2404.93</ele>
        <time>2026-09-03T11:25:25.000Z</time>
      </trkpt>
      <trkpt lat="44.72804" lon="5.95511">
        <ele>2409.75</ele>
        <time>2026-09-03T11:26:33.000Z</time>
      </trkpt>
      <trkpt lat="44.72798" lon="5.95536">
        <ele>2420.23</ele>
        <time>2026-09-03T11:28:39.000Z</time>
      </trkpt>
      <trkpt lat="44.7279" lon="5.95559">
        <ele>2424.83</ele>
        <time>2026-09-03T11:29:29.000Z</time>
      </trkpt>
      <trkpt lat="44.72803" lon="5.95577">
        <ele>2435.34</ele>
        <time>2026-09-03T11:31:10.999Z</time>
      </trkpt>
      <trkpt lat="44.72821" lon="5.95581">
        <ele>2451.06</ele>
        <time>2026-09-03T11:33:06.999Z</time>
      </trkpt>
      <trkpt lat="44.7284" lon="5.95584">
        <ele>2457.38</ele>
        <time>2026-09-03T11:34:02.999Z</time>
      </trkpt>
      <trkpt lat="44.72857" lon="5.95569">
        <ele>2462</ele>
        <time>2026-09-03T11:34:42.999Z</time>
      </trkpt>
      <trkpt lat="44.72875" lon="5.95562">
        <ele>2470.41</ele>
        <time>2026-09-03T11:35:40.999Z</time>
      </trkpt>
      <trkpt lat="44.72889" lon="5.95544">
        <ele>2494.36</ele>
        <time>2026-09-03T11:40:29.000Z</time>
      </trkpt>
      <trkpt lat="44.72889" lon="5.9557">
        <ele>2472.79</ele>
        <time>2026-09-03T11:56:56.000Z</time>
      </trkpt>
      <trkpt lat="44.72873" lon="5.95559">
        <ele>2470.93</ele>
        <time>2026-09-03T12:10:47.999Z</time>
      </trkpt>
      <trkpt lat="44.72855" lon="5.95567">
        <ele>2464.8</ele>
        <time>2026-09-03T12:11:29.999Z</time>
      </trkpt>
      <trkpt lat="44.72837" lon="5.95572">
        <ele>2456.54</ele>
        <time>2026-09-03T12:12:37.999Z</time>
      </trkpt>
      <trkpt lat="44.72818" lon="5.95566">
        <ele>2448.85</ele>
        <time>2026-09-03T12:14:38.000Z</time>
      </trkpt>
      <trkpt lat="44.72803" lon="5.95551">
        <ele>2433.27</ele>
        <time>2026-09-03T12:16:10.000Z</time>
      </trkpt>
      <trkpt lat="44.72785" lon="5.95558">
        <ele>2427.9</ele>
        <time>2026-09-03T12:17:16.000Z</time>
      </trkpt>
      <trkpt lat="44.72793" lon="5.95534">
        <ele>2423.53</ele>
        <time>2026-09-03T12:19:38.000Z</time>
      </trkpt>
      <trkpt lat="44.72807" lon="5.95517">
        <ele>2416.97</ele>
        <time>2026-09-03T12:20:30.000Z</time>
      </trkpt>
      <trkpt lat="44.72823" lon="5.95503">
        <ele>2411</ele>
        <time>2026-09-03T12:21:11.999Z</time>
      </trkpt>
      <trkpt lat="44.72831" lon="5.95479">
        <ele>2405.11</ele>
        <time>2026-09-03T12:23:11.999Z</time>
      </trkpt>
      <trkpt lat="44.72815" lon="5.95468">
        <ele>2394.24</ele>
        <time>2026-09-03T12:24:51.999Z</time>
      </trkpt>
      <trkpt lat="44.72804" lon="5.95447">
        <ele>2375.71</ele>
        <time>2026-09-03T12:26:47.999Z</time>
      </trkpt>
      <trkpt lat="44.72798" lon="5.95423">
        <ele>2369.62</ele>
        <time>2026-09-03T12:27:31.999Z</time>
      </trkpt>
      <trkpt lat="44.72798" lon="5.95397">
        <ele>2359</ele>
        <time>2026-09-03T12:28:17.999Z</time>
      </trkpt>
      <trkpt lat="44.72791" lon="5.95373">
        <ele>2349.1</ele>
        <time>2026-09-03T12:29:17.999Z</time>
      </trkpt>
      <trkpt lat="44.72787" lon="5.95348">
        <ele>2343.58</ele>
        <time>2026-09-03T12:30:00.000Z</time>
      </trkpt>
      <trkpt lat="44.72781" lon="5.95325">
        <ele>2335.19</ele>
        <time>2026-09-03T12:32:08.000Z</time>
      </trkpt>
      <trkpt lat="44.72789" lon="5.95301">
        <ele>2328.53</ele>
        <time>2026-09-03T12:33:32.000Z</time>
      </trkpt>
      <trkpt lat="44.72784" lon="5.95276">
        <ele>2322.54</ele>
        <time>2026-09-03T12:35:30.000Z</time>
      </trkpt>
      <trkpt lat="44.7277" lon="5.95256">
        <ele>2317.43</ele>
        <time>2026-09-03T12:35:58.000Z</time>
      </trkpt>
      <trkpt lat="44.72764" lon="5.95232">
        <ele>2311.55</ele>
        <time>2026-09-03T12:36:58.000Z</time>
      </trkpt>
      <trkpt lat="44.72747" lon="5.95221">
        <ele>2298.59</ele>
        <time>2026-09-03T12:37:45.999Z</time>
      </trkpt>
      <trkpt lat="44.7273" lon="5.95233">
        <ele>2270.67</ele>
        <time>2026-09-03T12:39:31.999Z</time>
      </trkpt>
      <trkpt lat="44.72712" lon="5.95243">
        <ele>2262.36</ele>
        <time>2026-09-03T12:40:35.999Z</time>
      </trkpt>
      <trkpt lat="44.72695" lon="5.95251">
        <ele>2251.96</ele>
        <time>2026-09-03T12:41:17.999Z</time>
      </trkpt>
      <trkpt lat="44.72676" lon="5.95248">
        <ele>2239.86</ele>
        <time>2026-09-03T12:42:33.999Z</time>
      </trkpt>
      <trkpt lat="44.72659" lon="5.95253">
        <ele>2235.68</ele>
        <time>2026-09-03T12:43:07.999Z</time>
      </trkpt>
      <trkpt lat="44.72645" lon="5.9527">
        <ele>2231.63</ele>
        <time>2026-09-03T12:43:41.999Z</time>
      </trkpt>
      <trkpt lat="44.72625" lon="5.95253">
        <ele>2230.35</ele>
        <time>2026-09-03T12:44:21.999Z</time>
      </trkpt>
      <trkpt lat="44.7261" lon="5.95239">
        <ele>2226.93</ele>
        <time>2026-09-03T12:44:45.999Z</time>
      </trkpt>
      <trkpt lat="44.72598" lon="5.9522">
        <ele>2220.15</ele>
        <time>2026-09-03T12:45:23.999Z</time>
      </trkpt>
      <trkpt lat="44.7258" lon="5.9522">
        <ele>2213.99</ele>
        <time>2026-09-03T12:46:00.000Z</time>
      </trkpt>
      <trkpt lat="44.72568" lon="5.95241">
        <ele>2204.77</ele>
        <time>2026-09-03T12:48:08.000Z</time>
      </trkpt>
      <trkpt lat="44.72552" lon="5.95254">
        <ele>2193.78</ele>
        <time>2026-09-03T12:49:22.000Z</time>
      </trkpt>
      <trkpt lat="44.72534" lon="5.95259">
        <ele>2186.05</ele>
        <time>2026-09-03T12:50:48.000Z</time>
      </trkpt>
      <trkpt lat="44.72516" lon="5.9526">
        <ele>2176.96</ele>
        <time>2026-09-03T12:51:34.000Z</time>
      </trkpt>
      <trkpt lat="44.72498" lon="5.95253">
        <ele>2160.67</ele>
        <time>2026-09-03T12:52:30.000Z</time>
      </trkpt>
      <trkpt lat="44.725" lon="5.95227">
        <ele>2138.98</ele>
        <time>2026-09-03T12:55:39.999Z</time>
      </trkpt>
      <trkpt lat="44.72501" lon="5.95199">
        <ele>2126.97</ele>
        <time>2026-09-03T12:57:03.999Z</time>
      </trkpt>
      <trkpt lat="44.72502" lon="5.95174">
        <ele>2116.72</ele>
        <time>2026-09-03T12:57:41.999Z</time>
      </trkpt>
      <trkpt lat="44.72497" lon="5.95149">
        <ele>2105.52</ele>
        <time>2026-09-03T12:58:29.999Z</time>
      </trkpt>
      <trkpt lat="44.72472" lon="5.95143">
        <ele>2098.74</ele>
        <time>2026-09-03T12:59:11.999Z</time>
      </trkpt>
      <trkpt lat="44.72453" lon="5.95154">
        <ele>2087.53</ele>
        <time>2026-09-03T13:00:31.999Z</time>
      </trkpt>
      <trkpt lat="44.72457" lon="5.95128">
        <ele>2082.61</ele>
        <time>2026-09-03T13:01:07.999Z</time>
      </trkpt>
      <trkpt lat="44.72441" lon="5.95116">
        <ele>2066.85</ele>
        <time>2026-09-03T13:02:36.999Z</time>
      </trkpt>
      <trkpt lat="44.72423" lon="5.95104">
        <ele>2066.06</ele>
        <time>2026-09-03T13:02:43.000Z</time>
      </trkpt>
      <trkpt lat="44.72405" lon="5.95104">
        <ele>2054.13</ele>
        <time>2026-09-03T13:03:31.000Z</time>
      </trkpt>
      <trkpt lat="44.72383" lon="5.95106">
        <ele>2045.4</ele>
        <time>2026-09-03T13:04:21.000Z</time>
      </trkpt>
      <trkpt lat="44.72367" lon="5.95117">
        <ele>2036.48</ele>
        <time>2026-09-03T13:05:19.000Z</time>
      </trkpt>
      <trkpt lat="44.72349" lon="5.95126">
        <ele>2026.77</ele>
        <time>2026-09-03T13:05:53.000Z</time>
      </trkpt>
      <trkpt lat="44.72334" lon="5.9514">
        <ele>2017.49</ele>
        <time>2026-09-03T13:06:15.000Z</time>
      </trkpt>
      <trkpt lat="44.7232" lon="5.95124">
        <ele>2008.3</ele>
        <time>2026-09-03T13:07:57.000Z</time>
      </trkpt>
      <trkpt lat="44.72302" lon="5.95128">
        <ele>2007.79</ele>
        <time>2026-09-03T13:09:29.000Z</time>
      </trkpt>
      <trkpt lat="44.72291" lon="5.95108">
        <ele>1999.89</ele>
        <time>2026-09-03T13:11:01.000Z</time>
      </trkpt>
      <trkpt lat="44.72273" lon="5.95104">
        <ele>1984.66</ele>
        <time>2026-09-03T13:13:22.999Z</time>
      </trkpt>
      <trkpt lat="44.72271" lon="5.95078">
        <ele>1980.92</ele>
        <time>2026-09-03T13:14:26.999Z</time>
      </trkpt>
      <trkpt lat="44.72286" lon="5.95065">
        <ele>1978.13</ele>
        <time>2026-09-03T13:14:52.999Z</time>
      </trkpt>
      <trkpt lat="44.72292" lon="5.9504">
        <ele>1977.62</ele>
        <time>2026-09-03T13:15:16.999Z</time>
      </trkpt>
      <trkpt lat="44.72285" lon="5.95016">
        <ele>1964.72</ele>
        <time>2026-09-03T13:16:50.999Z</time>
      </trkpt>
      <trkpt lat="44.72291" lon="5.9499">
        <ele>1955.37</ele>
        <time>2026-09-03T13:18:02.999Z</time>
      </trkpt>
      <trkpt lat="44.72277" lon="5.94975">
        <ele>1941.76</ele>
        <time>2026-09-03T13:19:14.999Z</time>
      </trkpt>
      <trkpt lat="44.7226" lon="5.94964">
        <ele>1929.12</ele>
        <time>2026-09-03T13:22:55.000Z</time>
      </trkpt>
      <trkpt lat="44.72257" lon="5.94938">
        <ele>1925.17</ele>
        <time>2026-09-03T13:26:13.000Z</time>
      </trkpt>
      <trkpt lat="44.72251" lon="5.94913">
        <ele>1905.34</ele>
        <time>2026-09-03T13:27:50.999Z</time>
      </trkpt>
      <trkpt lat="44.72241" lon="5.94892">
        <ele>1893.96</ele>
        <time>2026-09-03T13:28:38.999Z</time>
      </trkpt>
      <trkpt lat="44.72224" lon="5.949">
        <ele>1893.31</ele>
        <time>2026-09-03T13:29:18.999Z</time>
      </trkpt>
      <trkpt lat="44.72217" lon="5.94874">
        <ele>1881.03</ele>
        <time>2026-09-03T13:30:22.999Z</time>
      </trkpt>
      <trkpt lat="44.72207" lon="5.94851">
        <ele>1873.35</ele>
        <time>2026-09-03T13:30:48.999Z</time>
      </trkpt>
      <trkpt lat="44.72193" lon="5.94834">
        <ele>1864.62</ele>
        <time>2026-09-03T13:31:20.999Z</time>
      </trkpt>
      <trkpt lat="44.72185" lon="5.9481">
        <ele>1850.85</ele>
        <time>2026-09-03T13:32:02.999Z</time>
      </trkpt>
      <trkpt lat="44.72182" lon="5.94783">
        <ele>1839.75</ele>
        <time>2026-09-03T13:32:30.999Z</time>
      </trkpt>
      <trkpt lat="44.72171" lon="5.94762">
        <ele>1835.08</ele>
        <time>2026-09-03T13:32:54.999Z</time>
      </trkpt>
      <trkpt lat="44.72168" lon="5.94737">
        <ele>1827.45</ele>
        <time>2026-09-03T13:33:34.999Z</time>
      </trkpt>
      <trkpt lat="44.72169" lon="5.94709">
        <ele>1819.61</ele>
        <time>2026-09-03T13:34:08.999Z</time>
      </trkpt>
      <trkpt lat="44.72168" lon="5.94681">
        <ele>1807.35</ele>
        <time>2026-09-03T13:34:44.999Z</time>
      </trkpt>
      <trkpt lat="44.72173" lon="5.94655">
        <ele>1800.81</ele>
        <time>2026-09-03T13:35:12.999Z</time>
      </trkpt>
      <trkpt lat="44.72175" lon="5.94627">
        <ele>1795.48</ele>
        <time>2026-09-03T13:35:40.999Z</time>
      </trkpt>
      <trkpt lat="44.72183" lon="5.94603">
        <ele>1790.48</ele>
        <time>2026-09-03T13:36:09.000Z</time>
      </trkpt>
      <trkpt lat="44.72186" lon="5.94578">
        <ele>1779.63</ele>
        <time>2026-09-03T13:36:53.000Z</time>
      </trkpt>
      <trkpt lat="44.72187" lon="5.94552">
        <ele>1768.33</ele>
        <time>2026-09-03T13:37:29.000Z</time>
      </trkpt>
      <trkpt lat="44.72183" lon="5.94527">
        <ele>1760.86</ele>
        <time>2026-09-03T13:37:57.000Z</time>
      </trkpt>
      <trkpt lat="44.7218" lon="5.94502">
        <ele>1750</ele>
        <time>2026-09-03T13:38:27.000Z</time>
      </trkpt>
      <trkpt lat="44.72173" lon="5.94477">
        <ele>1740.85</ele>
        <time>2026-09-03T13:38:57.000Z</time>
      </trkpt>
      <trkpt lat="44.72169" lon="5.94452">
        <ele>1729.64</ele>
        <time>2026-09-03T13:39:37.000Z</time>
      </trkpt>
      <trkpt lat="44.7216" lon="5.9443">
        <ele>1722.6</ele>
        <time>2026-09-03T13:40:01.000Z</time>
      </trkpt>
      <trkpt lat="44.72153" lon="5.94405">
        <ele>1712.58</ele>
        <time>2026-09-03T13:40:30.000Z</time>
      </trkpt>
      <trkpt lat="44.72135" lon="5.94396">
        <ele>1706.95</ele>
        <time>2026-09-03T13:40:54.000Z</time>
      </trkpt>
      <trkpt lat="44.72124" lon="5.94373">
        <ele>1700.52</ele>
        <time>2026-09-03T13:41:34.000Z</time>
      </trkpt>
      <trkpt lat="44.72115" lon="5.94351">
        <ele>1689.48</ele>
        <time>2026-09-03T13:42:16.000Z</time>
      </trkpt>
      <trkpt lat="44.72099" lon="5.94338">
        <ele>1681.6</ele>
        <time>2026-09-03T13:42:46.000Z</time>
      </trkpt>
      <trkpt lat="44.72089" lon="5.94315">
        <ele>1676.41</ele>
        <time>2026-09-03T13:43:16.000Z</time>
      </trkpt>
      <trkpt lat="44.72074" lon="5.94301">
        <ele>1670.68</ele>
        <time>2026-09-03T13:43:44.000Z</time>
      </trkpt>
      <trkpt lat="44.72065" lon="5.94279">
        <ele>1660.46</ele>
        <time>2026-09-03T13:44:22.000Z</time>
      </trkpt>
      <trkpt lat="44.72047" lon="5.94272">
        <ele>1657.74</ele>
        <time>2026-09-03T13:46:31.999Z</time>
      </trkpt>
      <trkpt lat="44.72037" lon="5.94249">
        <ele>1652.33</ele>
        <time>2026-09-03T13:46:59.999Z</time>
      </trkpt>
      <trkpt lat="44.72025" lon="5.94227">
        <ele>1644.45</ele>
        <time>2026-09-03T13:47:37.999Z</time>
      </trkpt>
      <trkpt lat="44.72011" lon="5.94207">
        <ele>1637.41</ele>
        <time>2026-09-03T13:48:13.999Z</time>
      </trkpt>
      <trkpt lat="44.71996" lon="5.94193">
        <ele>1629.38</ele>
        <time>2026-09-03T13:48:41.999Z</time>
      </trkpt>
      <trkpt lat="44.71985" lon="5.94171">
        <ele>1622.35</ele>
        <time>2026-09-03T13:49:11.999Z</time>
      </trkpt>
      <trkpt lat="44.71971" lon="5.94155">
        <ele>1614.1</ele>
        <time>2026-09-03T13:49:53.999Z</time>
      </trkpt>
      <trkpt lat="44.71954" lon="5.94143">
        <ele>1605.21</ele>
        <time>2026-09-03T13:50:23.999Z</time>
      </trkpt>
      <trkpt lat="44.71939" lon="5.94129">
        <ele>1596.89</ele>
        <time>2026-09-03T13:50:53.999Z</time>
      </trkpt>
      <trkpt lat="44.71921" lon="5.94124">
        <ele>1588.36</ele>
        <time>2026-09-03T13:53:30.000Z</time>
      </trkpt>
      <trkpt lat="44.71907" lon="5.94105">
        <ele>1585.14</ele>
        <time>2026-09-03T13:54:00.000Z</time>
      </trkpt>
      <trkpt lat="44.7189" lon="5.94094">
        <ele>1581.56</ele>
        <time>2026-09-03T13:54:26.000Z</time>
      </trkpt>
      <trkpt lat="44.71895" lon="5.94119">
        <ele>1573.2</ele>
        <time>2026-09-03T13:56:26.000Z</time>
      </trkpt>
      <trkpt lat="44.71882" lon="5.94138">
        <ele>1574.09</ele>
        <time>2026-09-03T13:56:48.000Z</time>
      </trkpt>
      <trkpt lat="44.71865" lon="5.94148">
        <ele>1575.84</ele>
        <time>2026-09-03T13:57:08.000Z</time>
      </trkpt>
      <trkpt lat="44.71845" lon="5.94155">
        <ele>1578.3</ele>
        <time>2026-09-03T13:57:38.000Z</time>
      </trkpt>
      <trkpt lat="44.71827" lon="5.94159">
        <ele>1580.15</ele>
        <time>2026-09-03T13:57:58.000Z</time>
      </trkpt>
      <trkpt lat="44.7181" lon="5.94168">
        <ele>1581.52</ele>
        <time>2026-09-03T13:58:18.000Z</time>
      </trkpt>
      <trkpt lat="44.71793" lon="5.94178">
        <ele>1585.25</ele>
        <time>2026-09-03T13:58:50.000Z</time>
      </trkpt>
      <trkpt lat="44.71775" lon="5.94186">
        <ele>1590.12</ele>
        <time>2026-09-03T13:59:40.000Z</time>
      </trkpt>
      <trkpt lat="44.71755" lon="5.94186">
        <ele>1587.49</ele>
        <time>2026-09-03T14:00:40.000Z</time>
      </trkpt>
      <trkpt lat="44.71737" lon="5.94189">
        <ele>1585.15</ele>
        <time>2026-09-03T14:01:06.000Z</time>
      </trkpt>
      <trkpt lat="44.71749" lon="5.94169">
        <ele>1578.74</ele>
        <time>2026-09-03T14:01:43.999Z</time>
      </trkpt>
      <trkpt lat="44.71765" lon="5.94155">
        <ele>1577.16</ele>
        <time>2026-09-03T14:02:01.999Z</time>
      </trkpt>
      <trkpt lat="44.71779" lon="5.94137">
        <ele>1574</ele>
        <time>2026-09-03T14:02:23.999Z</time>
      </trkpt>
      <trkpt lat="44.71797" lon="5.94127">
        <ele>1570.91</ele>
        <time>2026-09-03T14:02:47.999Z</time>
      </trkpt>
      <trkpt lat="44.71778" lon="5.94117">
        <ele>1565.8</ele>
        <time>2026-09-03T14:03:17.999Z</time>
      </trkpt>
      <trkpt lat="44.71759" lon="5.94112">
        <ele>1563.58</ele>
        <time>2026-09-03T14:03:37.999Z</time>
      </trkpt>
      <trkpt lat="44.7174" lon="5.94112">
        <ele>1558.52</ele>
        <time>2026-09-03T14:03:55.999Z</time>
      </trkpt>
      <trkpt lat="44.71722" lon="5.94116">
        <ele>1555.91</ele>
        <time>2026-09-03T14:04:13.999Z</time>
      </trkpt>
      <trkpt lat="44.71727" lon="5.9409">
        <ele>1549.79</ele>
        <time>2026-09-03T14:05:03.999Z</time>
      </trkpt>
      <trkpt lat="44.71712" lon="5.94075">
        <ele>1539.98</ele>
        <time>2026-09-03T14:05:55.999Z</time>
      </trkpt>
      <trkpt lat="44.71694" lon="5.94075">
        <ele>1537.85</ele>
        <time>2026-09-03T14:06:13.999Z</time>
      </trkpt>
      <trkpt lat="44.71677" lon="5.94083">
        <ele>1534.33</ele>
        <time>2026-09-03T14:06:35.999Z</time>
      </trkpt>
      <trkpt lat="44.71658" lon="5.94086">
        <ele>1530.16</ele>
        <time>2026-09-03T14:07:02.999Z</time>
      </trkpt>
      <trkpt lat="44.71639" lon="5.94089">
        <ele>1527.28</ele>
        <time>2026-09-03T14:07:20.999Z</time>
      </trkpt>
      <trkpt lat="44.71625" lon="5.94072">
        <ele>1519.54</ele>
        <time>2026-09-03T14:08:12.999Z</time>
      </trkpt>
      <trkpt lat="44.71613" lon="5.94051">
        <ele>1510.23</ele>
        <time>2026-09-03T14:09:12.999Z</time>
      </trkpt>
      <trkpt lat="44.71601" lon="5.94032">
        <ele>1503.09</ele>
        <time>2026-09-03T14:09:53.000Z</time>
      </trkpt>
      <trkpt lat="44.71593" lon="5.94006">
        <ele>1495.43</ele>
        <time>2026-09-03T14:10:49.000Z</time>
      </trkpt>
      <trkpt lat="44.71591" lon="5.9398">
        <ele>1485.17</ele>
        <time>2026-09-03T14:11:43.000Z</time>
      </trkpt>
      <trkpt lat="44.71576" lon="5.93964">
        <ele>1481.59</ele>
        <time>2026-09-03T14:12:27.000Z</time>
      </trkpt>
      <trkpt lat="44.71569" lon="5.9399">
        <ele>1480.07</ele>
        <time>2026-09-03T14:12:47.000Z</time>
      </trkpt>
      <trkpt lat="44.7156" lon="5.94013">
        <ele>1478.44</ele>
        <time>2026-09-03T14:13:03.000Z</time>
      </trkpt>
      <trkpt lat="44.71542" lon="5.94023">
        <ele>1478.41</ele>
        <time>2026-09-03T14:13:51.000Z</time>
      </trkpt>
      <trkpt lat="44.71526" lon="5.94009">
        <ele>1478.68</ele>
        <time>2026-09-03T14:14:07.000Z</time>
      </trkpt>
      <trkpt lat="44.71511" lon="5.93994">
        <ele>1477.75</ele>
        <time>2026-09-03T14:14:25.000Z</time>
      </trkpt>
      <trkpt lat="44.71494" lon="5.93984">
        <ele>1476.58</ele>
        <time>2026-09-03T14:14:39.000Z</time>
      </trkpt>
      <trkpt lat="44.71477" lon="5.93972">
        <ele>1475.12</ele>
        <time>2026-09-03T14:14:55.000Z</time>
      </trkpt>
      <trkpt lat="44.71461" lon="5.93961">
        <ele>1474.52</ele>
        <time>2026-09-03T14:15:11.000Z</time>
      </trkpt>
      <trkpt lat="44.71447" lon="5.93943">
        <ele>1474.62</ele>
        <time>2026-09-03T14:15:27.000Z</time>
      </trkpt>
      <trkpt lat="44.71431" lon="5.93929">
        <ele>1474.45</ele>
        <time>2026-09-03T14:15:43.000Z</time>
      </trkpt>
      <trkpt lat="44.71413" lon="5.93924">
        <ele>1474.77</ele>
        <time>2026-09-03T14:16:03.000Z</time>
      </trkpt>
      <trkpt lat="44.71394" lon="5.93925">
        <ele>1473.79</ele>
        <time>2026-09-03T14:16:21.000Z</time>
      </trkpt>
      <trkpt lat="44.71376" lon="5.93926">
        <ele>1473.24</ele>
        <time>2026-09-03T14:16:35.000Z</time>
      </trkpt>
      <trkpt lat="44.7136" lon="5.93939">
        <ele>1470.36</ele>
        <time>2026-09-03T14:16:59.000Z</time>
      </trkpt>
      <trkpt lat="44.71348" lon="5.93958">
        <ele>1468.95</ele>
        <time>2026-09-03T14:17:15.000Z</time>
      </trkpt>
      <trkpt lat="44.7133" lon="5.93962">
        <ele>1468.48</ele>
        <time>2026-09-03T14:17:29.000Z</time>
      </trkpt>
      <trkpt lat="44.7131" lon="5.93953">
        <ele>1466.41</ele>
        <time>2026-09-03T14:17:47.000Z</time>
      </trkpt>
      <trkpt lat="44.71297" lon="5.93932">
        <ele>1465.81</ele>
        <time>2026-09-03T14:18:00.999Z</time>
      </trkpt>
      <trkpt lat="44.71288" lon="5.93909">
        <ele>1464.25</ele>
        <time>2026-09-03T14:18:18.999Z</time>
      </trkpt>
      <trkpt lat="44.71272" lon="5.93893">
        <ele>1461.19</ele>
        <time>2026-09-03T14:18:54.999Z</time>
      </trkpt>
      <trkpt lat="44.71253" lon="5.93892">
        <ele>1462.01</ele>
        <time>2026-09-03T14:19:26.999Z</time>
      </trkpt>
      <trkpt lat="44.71234" lon="5.93894">
        <ele>1462.33</ele>
        <time>2026-09-03T14:19:44.999Z</time>
      </trkpt>
      <trkpt lat="44.71216" lon="5.93905">
        <ele>1464.63</ele>
        <time>2026-09-03T14:20:06.999Z</time>
      </trkpt>
      <trkpt lat="44.71197" lon="5.93907">
        <ele>1463.11</ele>
        <time>2026-09-03T14:20:26.999Z</time>
      </trkpt>
      <trkpt lat="44.71179" lon="5.93911">
        <ele>1463.47</ele>
        <time>2026-09-03T14:20:46.999Z</time>
      </trkpt>
      <trkpt lat="44.7116" lon="5.93922">
        <ele>1462.82</ele>
        <time>2026-09-03T14:21:04.999Z</time>
      </trkpt>
      <trkpt lat="44.71141" lon="5.93928">
        <ele>1462.72</ele>
        <time>2026-09-03T14:21:20.999Z</time>
      </trkpt>
      <trkpt lat="44.71123" lon="5.93931">
        <ele>1463.24</ele>
        <time>2026-09-03T14:21:34.999Z</time>
      </trkpt>
      <trkpt lat="44.71106" lon="5.93936">
        <ele>1463.43</ele>
        <time>2026-09-03T14:21:50.999Z</time>
      </trkpt>
      <trkpt lat="44.71087" lon="5.93945">
        <ele>1463.01</ele>
        <time>2026-09-03T14:22:08.999Z</time>
      </trkpt>
      <trkpt lat="44.71067" lon="5.93945">
        <ele>1463.13</ele>
        <time>2026-09-03T14:22:24.999Z</time>
      </trkpt>
      <trkpt lat="44.71047" lon="5.93946">
        <ele>1462.76</ele>
        <time>2026-09-03T14:22:42.999Z</time>
      </trkpt>
      <trkpt lat="44.71028" lon="5.93944">
        <ele>1460.92</ele>
        <time>2026-09-03T14:23:02.999Z</time>
      </trkpt>
      <trkpt lat="44.71008" lon="5.9395">
        <ele>1465.27</ele>
        <time>2026-09-03T14:23:18.999Z</time>
      </trkpt>
      <trkpt lat="44.70989" lon="5.93957">
        <ele>1461.97</ele>
        <time>2026-09-03T14:23:36.999Z</time>
      </trkpt>
      <trkpt lat="44.70971" lon="5.93968">
        <ele>1461.28</ele>
        <time>2026-09-03T14:23:52.999Z</time>
      </trkpt>
      <trkpt lat="44.70955" lon="5.93981">
        <ele>1462.86</ele>
        <time>2026-09-03T14:24:08.999Z</time>
      </trkpt>
      <trkpt lat="44.7094" lon="5.93999">
        <ele>1463.5</ele>
        <time>2026-09-03T14:24:24.999Z</time>
      </trkpt>
      <trkpt lat="44.70925" lon="5.94014">
        <ele>1464.33</ele>
        <time>2026-09-03T14:24:46.999Z</time>
      </trkpt>
      <trkpt lat="44.70911" lon="5.94035">
        <ele>1465.46</ele>
        <time>2026-09-03T14:25:06.999Z</time>
      </trkpt>
      <trkpt lat="44.70899" lon="5.94056">
        <ele>1466.21</ele>
        <time>2026-09-03T14:25:22.999Z</time>
      </trkpt>
      <trkpt lat="44.70885" lon="5.94077">
        <ele>1466.86</ele>
        <time>2026-09-03T14:25:38.999Z</time>
      </trkpt>
      <trkpt lat="44.70873" lon="5.94098">
        <ele>1465.31</ele>
        <time>2026-09-03T14:25:52.999Z</time>
      </trkpt>
      <trkpt lat="44.70857" lon="5.94111">
        <ele>1462.47</ele>
        <time>2026-09-03T14:26:11.000Z</time>
      </trkpt>
      <trkpt lat="44.70837" lon="5.94109">
        <ele>1459.73</ele>
        <time>2026-09-03T14:26:33.000Z</time>
      </trkpt>
      <trkpt lat="44.70817" lon="5.94113">
        <ele>1458.01</ele>
        <time>2026-09-03T14:26:51.000Z</time>
      </trkpt>
      <trkpt lat="44.70799" lon="5.94118">
        <ele>1455.53</ele>
        <time>2026-09-03T14:27:07.000Z</time>
      </trkpt>
      <trkpt lat="44.70783" lon="5.94131">
        <ele>1455.48</ele>
        <time>2026-09-03T14:27:25.000Z</time>
      </trkpt>
      <trkpt lat="44.70772" lon="5.94153">
        <ele>1455.31</ele>
        <time>2026-09-03T14:27:41.000Z</time>
      </trkpt>
      <trkpt lat="44.70757" lon="5.94168">
        <ele>1454.26</ele>
        <time>2026-09-03T14:27:57.000Z</time>
      </trkpt>
      <trkpt lat="44.7074" lon="5.94183">
        <ele>1453.96</ele>
        <time>2026-09-03T14:28:15.000Z</time>
      </trkpt>
      <trkpt lat="44.70726" lon="5.94201">
        <ele>1455.86</ele>
        <time>2026-09-03T14:28:29.000Z</time>
      </trkpt>
      <trkpt lat="44.70713" lon="5.94221">
        <ele>1454.31</ele>
        <time>2026-09-03T14:28:43.000Z</time>
      </trkpt>
      <trkpt lat="44.707" lon="5.94239">
        <ele>1455.13</ele>
        <time>2026-09-03T14:29:07.000Z</time>
      </trkpt>
      <trkpt lat="44.70684" lon="5.94253">
        <ele>1455.07</ele>
        <time>2026-09-03T14:29:35.000Z</time>
      </trkpt>
      <trkpt lat="44.70663" lon="5.94254">
        <ele>1453.75</ele>
        <time>2026-09-03T14:29:53.000Z</time>
      </trkpt>
      <trkpt lat="44.70645" lon="5.94255">
        <ele>1455.04</ele>
        <time>2026-09-03T14:30:07.000Z</time>
      </trkpt>
      <trkpt lat="44.70625" lon="5.94254">
        <ele>1454</ele>
        <time>2026-09-03T14:30:33.000Z</time>
      </trkpt>
      <trkpt lat="44.70607" lon="5.94263">
        <ele>1453.35</ele>
        <time>2026-09-03T14:30:55.000Z</time>
      </trkpt>
      <trkpt lat="44.70592" lon="5.9428">
        <ele>1456.03</ele>
        <time>2026-09-03T14:31:13.000Z</time>
      </trkpt>
      <trkpt lat="44.70574" lon="5.94289">
        <ele>1459.38</ele>
        <time>2026-09-03T14:31:43.000Z</time>
      </trkpt>
      <trkpt lat="44.70555" lon="5.94295">
        <ele>1457.9</ele>
        <time>2026-09-03T14:32:09.000Z</time>
      </trkpt>
      <trkpt lat="44.70536" lon="5.94305">
        <ele>1457.3</ele>
        <time>2026-09-03T14:32:29.000Z</time>
      </trkpt>
      <trkpt lat="44.70519" lon="5.94312">
        <ele>1458.68</ele>
        <time>2026-09-03T14:32:55.000Z</time>
      </trkpt>
      <trkpt lat="44.70501" lon="5.94324">
        <ele>1465.65</ele>
        <time>2026-09-03T14:33:35.000Z</time>
      </trkpt>
      <trkpt lat="44.70483" lon="5.94331">
        <ele>1463.51</ele>
        <time>2026-09-03T14:33:53.000Z</time>
      </trkpt>
      <trkpt lat="44.70469" lon="5.94347">
        <ele>1459.07</ele>
        <time>2026-09-03T14:34:07.000Z</time>
      </trkpt>
      <trkpt lat="44.70454" lon="5.94363">
        <ele>1461.44</ele>
        <time>2026-09-03T14:34:29.000Z</time>
      </trkpt>
      <trkpt lat="44.70444" lon="5.94386">
        <ele>1464.59</ele>
        <time>2026-09-03T14:34:46.999Z</time>
      </trkpt>
      <trkpt lat="44.70433" lon="5.94407">
        <ele>1462.33</ele>
        <time>2026-09-03T14:35:06.999Z</time>
      </trkpt>
      <trkpt lat="44.70422" lon="5.94428">
        <ele>1468.21</ele>
        <time>2026-09-03T14:35:28.999Z</time>
      </trkpt>
      <trkpt lat="44.70412" lon="5.94451">
        <ele>1473.48</ele>
        <time>2026-09-03T14:35:48.999Z</time>
      </trkpt>
      <trkpt lat="44.70398" lon="5.9447">
        <ele>1474.17</ele>
        <time>2026-09-03T14:36:26.999Z</time>
      </trkpt>
      <trkpt lat="44.70388" lon="5.94491">
        <ele>1475.62</ele>
        <time>2026-09-03T14:37:00.999Z</time>
      </trkpt>
      <trkpt lat="44.70378" lon="5.94512">
        <ele>1477.64</ele>
        <time>2026-09-03T14:37:16.999Z</time>
      </trkpt>
      <trkpt lat="44.70363" lon="5.94531">
        <ele>1479.34</ele>
        <time>2026-09-03T14:37:36.999Z</time>
      </trkpt>
      <trkpt lat="44.7036" lon="5.94558">
        <ele>1481.3</ele>
        <time>2026-09-03T14:37:56.999Z</time>
      </trkpt>
      <trkpt lat="44.70355" lon="5.94584">
        <ele>1481.74</ele>
        <time>2026-09-03T14:38:12.999Z</time>
      </trkpt>
      <trkpt lat="44.70349" lon="5.9461">
        <ele>1481.7</ele>
        <time>2026-09-03T14:38:30.999Z</time>
      </trkpt>
      <trkpt lat="44.70345" lon="5.94637">
        <ele>1485.43</ele>
        <time>2026-09-03T14:38:50.999Z</time>
      </trkpt>
      <trkpt lat="44.70346" lon="5.94663">
        <ele>1486.29</ele>
        <time>2026-09-03T14:39:06.999Z</time>
      </trkpt>
      <trkpt lat="44.70346" lon="5.9469">
        <ele>1487.39</ele>
        <time>2026-09-03T14:39:26.999Z</time>
      </trkpt>
      <trkpt lat="44.70347" lon="5.94716">
        <ele>1486.83</ele>
        <time>2026-09-03T14:39:42.999Z</time>
      </trkpt>
      <trkpt lat="44.70344" lon="5.94743">
        <ele>1488.01</ele>
        <time>2026-09-03T14:40:02.999Z</time>
      </trkpt>
      <trkpt lat="44.70341" lon="5.94771">
        <ele>1487.98</ele>
        <time>2026-09-03T14:40:22.999Z</time>
      </trkpt>
      <trkpt lat="44.70329" lon="5.94794">
        <ele>1488.97</ele>
        <time>2026-09-03T14:40:40.999Z</time>
      </trkpt>
      <trkpt lat="44.70313" lon="5.94805">
        <ele>1491.11</ele>
        <time>2026-09-03T14:41:00.999Z</time>
      </trkpt>
      <trkpt lat="44.70296" lon="5.94817">
        <ele>1491.8</ele>
        <time>2026-09-03T14:41:18.999Z</time>
      </trkpt>
      <trkpt lat="44.70283" lon="5.94838">
        <ele>1490.02</ele>
        <time>2026-09-03T14:41:38.999Z</time>
      </trkpt>
      <trkpt lat="44.70267" lon="5.94852">
        <ele>1492.01</ele>
        <time>2026-09-03T14:41:56.999Z</time>
      </trkpt>
      <trkpt lat="44.70249" lon="5.94864">
        <ele>1491.73</ele>
        <time>2026-09-03T14:42:14.999Z</time>
      </trkpt>
      <trkpt lat="44.70233" lon="5.94875">
        <ele>1491.12</ele>
        <time>2026-09-03T14:42:32.999Z</time>
      </trkpt>
      <trkpt lat="44.70215" lon="5.94885">
        <ele>1490.99</ele>
        <time>2026-09-03T14:42:50.999Z</time>
      </trkpt>
      <trkpt lat="44.70199" lon="5.94905">
        <ele>1491.12</ele>
        <time>2026-09-03T14:43:07.000Z</time>
      </trkpt>
      <trkpt lat="44.7019" lon="5.94928">
        <ele>1491.34</ele>
        <time>2026-09-03T14:43:23.000Z</time>
      </trkpt>
      <trkpt lat="44.70187" lon="5.94955">
        <ele>1491.21</ele>
        <time>2026-09-03T14:43:43.000Z</time>
      </trkpt>
      <trkpt lat="44.70183" lon="5.94982">
        <ele>1490.49</ele>
        <time>2026-09-03T14:44:01.000Z</time>
      </trkpt>
      <trkpt lat="44.70175" lon="5.95006">
        <ele>1492.07</ele>
        <time>2026-09-03T14:44:19.000Z</time>
      </trkpt>
      <trkpt lat="44.7016" lon="5.9502">
        <ele>1494.09</ele>
        <time>2026-09-03T14:44:39.000Z</time>
      </trkpt>
      <trkpt lat="44.70142" lon="5.9503">
        <ele>1501.01</ele>
        <time>2026-09-03T14:44:59.000Z</time>
      </trkpt>
      <trkpt lat="44.70129" lon="5.95052">
        <ele>1500.43</ele>
        <time>2026-09-03T14:45:21.000Z</time>
      </trkpt>
      <trkpt lat="44.70118" lon="5.95074">
        <ele>1501.52</ele>
        <time>2026-09-03T14:45:43.000Z</time>
      </trkpt>
      <trkpt lat="44.70109" lon="5.95097">
        <ele>1502.24</ele>
        <time>2026-09-03T14:46:03.000Z</time>
      </trkpt>
      <trkpt lat="44.70099" lon="5.95119">
        <ele>1502.35</ele>
        <time>2026-09-03T14:46:21.000Z</time>
      </trkpt>
      <trkpt lat="44.70084" lon="5.95133">
        <ele>1503.84</ele>
        <time>2026-09-03T14:47:53.000Z</time>
      </trkpt>
    </trkseg>
  </trk>
</gpx>